createdAt,value
2023-04-02T00:08:08.094Z,99.9
2023-04-02T00:10:13.813Z,99.9
2023-04-02T00:12:19.601Z,99.9
2023-04-02T00:14:28.390Z,99.9
2023-04-02T00:16:34.167Z,99.9
2023-04-02T00:18:39.895Z,99.9
2023-04-02T00:20:45.595Z,99.9
2023-04-02T00:22:51.392Z,99.9
2023-04-02T00:24:57.126Z,99.9
2023-04-02T00:27:02.876Z,99.9
2023-04-02T00:29:11.657Z,99.9
2023-04-02T00:31:17.419Z,99.9
2023-04-02T00:33:23.164Z,99.9
2023-04-02T00:35:28.911Z,99.9
2023-04-02T00:37:34.632Z,99.9
2023-04-02T00:39:40.358Z,99.9
2023-04-02T00:43:54.912Z,99.9
2023-04-02T00:46:00.733Z,99.9
2023-04-02T00:48:06.466Z,99.9
2023-04-02T00:52:17.882Z,99.9
2023-04-02T00:54:23.634Z,99.9
2023-04-02T00:58:38.204Z,99.9
2023-04-02T01:00:43.899Z,99.9
2023-04-02T01:02:49.730Z,99.9
2023-04-02T01:08:05.570Z,99.9
2023-04-02T01:10:11.297Z,99.9
2023-04-02T01:12:20.110Z,99.9
2023-04-02T01:14:25.847Z,99.9
2023-04-02T01:16:31.589Z,99.9
2023-04-02T01:18:37.355Z,99.9
2023-04-02T01:20:43.033Z,99.9
2023-04-02T01:22:48.759Z,99.9
2023-04-02T01:24:54.487Z,99.9
2023-04-02T01:27:03.314Z,99.9
2023-04-02T01:31:14.849Z,99.9
2023-04-02T01:37:31.975Z,99.9
2023-04-02T01:39:37.702Z,99.9
2023-04-02T01:41:46.506Z,99.9
2023-04-02T01:43:52.241Z,99.9
2023-04-02T01:45:57.982Z,99.9
2023-04-02T01:48:03.732Z,99.9
2023-04-02T01:50:09.434Z,99.9
2023-04-02T01:52:15.157Z,99.9
2023-04-02T01:54:20.869Z,99.9
2023-04-02T01:56:29.676Z,99.9
2023-04-02T01:58:35.848Z,99.9
2023-04-02T02:00:41.210Z,99.9
2023-04-02T02:01:45.602Z,99.9
2023-04-02T02:08:02.765Z,99.9
2023-04-02T02:24:54.726Z,99.9
2023-04-02T02:27:00.439Z,99.9
2023-04-02T02:29:06.169Z,99.9
2023-04-02T02:31:11.884Z,99.9
2023-04-02T02:37:29.075Z,99.9
2023-04-02T02:39:37.897Z,99.9
2023-04-02T02:41:43.604Z,99.9
2023-04-02T02:45:55.081Z,99.9
2023-04-02T02:48:00.783Z,99.9
2023-04-02T02:50:06.495Z,99.9
2023-04-02T02:52:12.197Z,99.9
2023-04-02T02:54:21.016Z,99.9
2023-04-02T02:58:32.446Z,99.9
2023-04-02T03:01:42.622Z,99.9
2023-04-02T03:03:48.386Z,99.9
2023-04-02T03:05:53.997Z,99.9
2023-04-02T03:08:02.798Z,99.9
2023-04-02T03:10:08.546Z,99.9
2023-04-02T03:12:14.222Z,99.9
2023-04-02T03:14:19.941Z,99.9
2023-04-02T03:16:25.684Z,99.9
2023-04-02T03:18:31.351Z,99.9
2023-04-02T03:22:45.861Z,99.9
2023-04-02T03:24:51.573Z,99.9
2023-04-02T03:26:57.287Z,99.9
2023-04-02T03:29:03.031Z,99.9
2023-04-02T03:35:20.109Z,99.9
2023-04-02T03:37:28.926Z,99.9
2023-04-02T03:39:34.590Z,99.9
2023-04-02T03:41:40.289Z,99.9
2023-04-02T03:45:51.681Z,99.9
2023-04-02T03:47:57.468Z,99.9
2023-04-02T03:50:03.113Z,99.9
2023-04-02T03:52:11.856Z,99.9
2023-04-02T03:54:17.550Z,99.9
2023-04-02T03:56:23.239Z,99.9
2023-04-02T03:58:52.696Z,99.9
2023-04-02T04:03:04.158Z,99.9
2023-04-02T04:11:29.994Z,99.9
2023-04-02T04:13:35.766Z,99.9
2023-04-02T04:15:41.361Z,99.9
2023-04-02T04:19:55.812Z,99.9
2023-04-02T04:22:01.505Z,99.9
2023-04-02T04:53:32.897Z,99.9
2023-04-02T04:54:37.267Z,99.9
2023-04-02T05:00:54.314Z,99.9
2023-04-02T05:03:03.039Z,99.9
2023-04-02T05:05:08.740Z,99.9
2023-04-02T05:07:14.380Z,99.9
2023-04-02T05:09:20.049Z,99.9
2023-04-02T05:17:45.921Z,99.9
2023-04-02T05:19:51.500Z,99.9
2023-04-02T05:21:57.190Z,99.9
2023-04-02T05:26:08.507Z,99.9
2023-04-02T05:30:20.273Z,99.9
2023-04-02T05:32:28.628Z,99.9
2023-04-02T05:34:34.230Z,99.9
2023-04-02T05:36:39.887Z,99.9
2023-04-02T05:38:47.203Z,99.9
2023-04-02T05:40:52.799Z,99.9
2023-04-02T05:42:58.441Z,99.9
2023-04-02T05:47:12.816Z,99.9
2023-04-02T05:49:18.505Z,99.9
2023-04-02T05:51:24.152Z,99.9
2023-04-02T05:52:28.532Z,99.9
2023-04-02T05:54:34.196Z,99.9
2023-04-02T05:56:39.820Z,99.9
2023-04-02T05:58:45.865Z,99.9
2023-04-02T06:00:54.190Z,99.9
2023-04-02T06:03:00.092Z,99.9
2023-04-02T06:05:05.512Z,99.9
2023-04-02T06:07:11.152Z,99.9
2023-04-02T06:11:22.423Z,99.9
2023-04-02T06:13:28.082Z,99.9
2023-04-02T06:15:37.101Z,99.9
2023-04-02T06:17:42.508Z,99.9
2023-04-02T06:19:48.096Z,99.9
2023-04-02T06:21:53.722Z,99.9
2023-04-02T06:23:59.390Z,99.9
2023-04-02T06:26:05.034Z,99.9
2023-04-02T06:28:10.675Z,99.9
2023-04-02T06:30:19.378Z,99.9
2023-04-02T06:32:25.047Z,99.9
2023-04-02T06:34:30.653Z,99.9
2023-04-02T06:45:01.904Z,99.9
2023-04-02T06:47:07.547Z,99.9
2023-04-02T06:49:13.205Z,99.9
2023-04-02T06:50:17.558Z,99.9
2023-04-02T06:54:28.848Z,99.9
2023-04-02T06:58:43.626Z,99.9
2023-04-02T07:00:48.842Z,99.9
2023-04-02T07:02:54.514Z,99.9
2023-04-02T07:05:00.191Z,99.9
2023-04-02T07:07:05.759Z,99.9
2023-04-02T07:09:11.380Z,99.9
2023-04-02T07:11:19.391Z,99.9
2023-04-02T07:13:25.732Z,99.9
2023-04-02T07:17:37.086Z,99.9
2023-04-02T07:23:53.958Z,99.9
2023-04-02T07:25:59.596Z,99.9
2023-04-02T07:28:08.344Z,99.9
2023-04-02T07:30:13.994Z,99.9
2023-04-02T07:32:19.644Z,99.9
2023-04-02T07:34:25.275Z,99.9
2023-04-02T07:36:30.920Z,99.9
2023-04-02T07:38:36.547Z,99.9
2023-04-02T07:40:42.213Z,99.9
2023-04-02T07:42:50.959Z,99.9
2023-04-02T07:44:56.584Z,99.9
2023-04-02T07:47:02.281Z,99.9
2023-04-02T07:53:45.080Z,99.9
2023-04-02T07:55:53.796Z,99.9
2023-04-02T08:00:05.130Z,99.9
2023-04-02T08:08:27.662Z,99.9
2023-04-02T08:25:18.974Z,99.9
2023-04-02T08:27:24.627Z,99.9
2023-04-02T08:29:30.284Z,99.9
2023-04-02T08:31:35.923Z,99.9
2023-04-02T08:37:52.913Z,99.9
2023-04-02T08:40:01.655Z,99.9
2023-04-02T08:42:07.286Z,99.9
2023-04-02T08:44:12.949Z,99.9
2023-04-02T08:45:24.849Z,99.9
2023-04-02T08:47:22.984Z,99.9
2023-04-02T08:49:28.641Z,99.9
2023-04-02T08:53:43.099Z,99.9
2023-04-02T08:55:48.783Z,99.9
2023-04-02T08:57:54.446Z,99.9
2023-04-02T09:00:00.169Z,99.9
2023-04-02T09:08:25.955Z,99.9
2023-04-02T09:10:31.642Z,99.9
2023-04-02T09:12:37.335Z,99.9
2023-04-02T09:14:43.054Z,99.9
2023-04-02T09:16:48.731Z,99.9
2023-04-02T09:33:37.358Z,99.9
2023-04-02T09:35:43.328Z,99.9
2023-04-02T09:37:51.858Z,99.9
2023-04-02T09:43:07.709Z,99.9
2023-04-02T09:45:13.435Z,99.9
2023-04-02T09:47:19.153Z,99.9
2023-04-02T09:53:41.854Z,96.5
2023-04-02T09:55:45.164Z,95.2
2023-04-02T09:57:50.901Z,95.1
2023-04-02T09:59:56.698Z,95.1
2023-04-02T10:02:02.466Z,95.3
2023-04-02T10:04:08.279Z,95.2
2023-04-02T10:06:17.071Z,92.9
2023-04-02T10:08:23.826Z,92.6
2023-04-02T10:10:28.657Z,92.3
2023-04-02T10:12:34.442Z,92.1
2023-04-02T10:18:51.835Z,91.3
2023-04-02T10:21:00.717Z,90.4
2023-04-02T10:23:06.645Z,89.3
2023-04-02T10:25:12.306Z,89.2
2023-04-02T10:27:18.181Z,89.2
2023-04-02T10:29:23.847Z,89.1
2023-04-02T10:31:29.697Z,89.1
2023-04-02T10:33:35.502Z,89.4
2023-04-02T10:41:00.387Z,90.3
2023-04-02T10:45:12.019Z,89.4
2023-04-02T10:49:26.660Z,88.6
2023-04-02T10:51:32.494Z,87.7
2023-04-02T10:53:38.370Z,87.8
2023-04-02T10:55:43.966Z,87.2
2023-04-02T10:57:49.713Z,86.9
2023-04-02T10:59:55.399Z,87.2
2023-04-02T11:04:09.965Z,88.9
2023-04-02T11:06:15.713Z,89.2
2023-04-02T11:08:21.440Z,89.3
2023-04-02T11:12:33.012Z,89.6
2023-04-02T11:14:38.839Z,89.4
2023-04-02T11:16:45.090Z,89.5
2023-04-02T11:23:04.771Z,89
2023-04-02T11:25:10.510Z,88.5
2023-04-02T11:31:28.076Z,88.5
2023-04-02T11:33:39.254Z,89.3
2023-04-02T11:35:42.864Z,89.6
2023-04-02T11:37:48.599Z,88.8
2023-04-02T11:40:19.638Z,87.7
2023-04-02T11:42:25.327Z,87
2023-04-02T11:44:31.132Z,87.2
2023-04-02T11:48:45.874Z,87.2
2023-04-02T11:55:03.260Z,84.6
2023-04-02T11:57:09.111Z,84.7
2023-04-02T11:59:14.859Z,85
2023-04-02T12:01:23.726Z,85.8
2023-04-02T12:07:41.110Z,85.9
2023-04-02T12:09:46.905Z,85.4
2023-04-02T12:13:58.526Z,85.8
2023-04-02T12:16:07.398Z,86.5
2023-04-02T12:18:13.186Z,85.8
2023-04-02T12:20:18.988Z,85.6
2023-04-02T12:22:24.788Z,85.4
2023-04-02T12:24:30.591Z,85
2023-04-02T12:28:42.207Z,84
2023-04-02T12:32:57.000Z,83.7
2023-04-02T12:36:07.124Z,83.5
2023-04-02T12:38:12.910Z,83.9
2023-04-02T12:40:18.713Z,83.7
2023-04-02T12:42:24.508Z,83.2
2023-04-02T12:44:33.414Z,81.8
2023-04-02T12:52:56.639Z,81.8
2023-04-02T13:01:22.979Z,81.5
2023-04-02T13:16:06.837Z,78.3
2023-04-02T13:18:12.569Z,78.4
2023-04-02T13:20:18.385Z,77.6
2023-04-02T13:22:24.237Z,76.1
2023-04-02T13:26:35.851Z,75
2023-04-02T13:30:50.503Z,74.6
2023-04-02T13:32:56.373Z,74.6
2023-04-02T13:34:00.733Z,74.6
2023-04-02T13:36:06.677Z,74.2
2023-04-02T13:38:12.402Z,74
2023-04-02T13:52:56.259Z,70.7
2023-04-02T13:55:02.119Z,70.5
2023-04-02T13:59:16.766Z,69.7
2023-04-02T14:01:22.579Z,69.7
2023-04-02T14:03:28.400Z,69.8
2023-04-02T14:07:39.949Z,69.6
2023-04-02T14:14:00.439Z,67.1
2023-04-02T14:16:06.255Z,66.7
2023-04-02T14:18:11.992Z,66.7
2023-04-02T14:20:17.711Z,67.3
2023-04-02T14:22:23.449Z,67.1
2023-04-02T14:24:29.189Z,67.4
2023-04-02T14:26:38.088Z,68.2
2023-04-02T14:28:47.763Z,68.5
2023-04-02T14:30:49.701Z,68.2
2023-04-02T14:31:54.104Z,68.5
2023-04-02T14:33:59.957Z,68.3
2023-04-02T14:38:11.537Z,67.5
2023-04-02T14:42:26.269Z,66.9
2023-04-02T14:44:32.114Z,67.1
2023-04-02T14:46:38.072Z,67.1
2023-04-02T14:48:43.703Z,66.6
2023-04-02T14:50:49.507Z,66.3
2023-04-02T14:52:55.362Z,66.4
2023-04-02T14:55:04.259Z,66.4
2023-04-02T14:59:15.928Z,67
2023-04-02T15:07:39.093Z,67.7
2023-04-02T15:09:47.790Z,67.9
2023-04-02T15:11:53.642Z,67.6
2023-04-02T15:13:59.464Z,67.6
2023-04-02T15:16:05.237Z,67.4
2023-04-02T15:18:11.055Z,67.2
2023-04-02T15:20:16.889Z,67
2023-04-02T15:22:22.705Z,66.6
2023-04-02T15:24:31.529Z,66.4
2023-04-02T15:26:37.369Z,66.3
2023-04-02T15:28:43.204Z,66.1
2023-04-02T15:35:26.236Z,66.1
2023-04-02T15:52:18.379Z,69.4
2023-04-02T15:54:24.143Z,69.7
2023-04-02T15:56:29.976Z,69.9
2023-04-02T15:58:35.717Z,69.5
2023-04-02T16:00:41.440Z,68.9
2023-04-02T16:02:47.360Z,67.8
2023-04-02T16:04:53.121Z,67.3
2023-04-02T16:19:37.498Z,65.5
2023-04-02T16:21:45.487Z,65.1
2023-04-02T16:23:51.309Z,64.9
2023-04-02T16:25:57.170Z,65.1
2023-04-02T16:27:01.519Z,64.9
2023-04-02T16:37:33.158Z,66
2023-04-02T16:39:38.885Z,66.4
2023-04-02T16:41:44.600Z,66.6
2023-04-02T16:43:50.453Z,67
2023-04-02T16:45:56.190Z,67.3
2023-04-02T16:48:02.068Z,67.4
2023-04-02T16:50:10.924Z,67.9
2023-04-02T16:52:16.755Z,68.1
2023-04-02T16:54:22.479Z,68.1
2023-04-02T17:00:39.900Z,68
2023-04-02T17:02:45.733Z,67.8
2023-04-02T17:04:54.538Z,67.5
2023-04-02T17:07:00.400Z,67.2
2023-04-02T17:09:06.204Z,67.1
2023-04-02T17:19:38.197Z,70.1
2023-04-02T17:21:43.935Z,70.7
2023-04-02T17:23:55.705Z,70.9
2023-04-02T17:24:54.200Z,71.6
2023-04-02T17:27:00.097Z,71.9
2023-04-02T17:29:05.868Z,72.5
2023-04-02T17:33:20.629Z,73.9
2023-04-02T17:35:26.492Z,74.3
2023-04-02T17:37:32.265Z,74.5
2023-04-02T17:45:57.149Z,74.5
2023-04-02T17:48:06.081Z,74.5
2023-04-02T17:50:11.851Z,74.8
2023-04-02T17:52:17.656Z,74.9
2023-04-02T17:58:35.090Z,75.4
2023-04-02T18:00:40.874Z,75.5
2023-04-02T18:02:49.835Z,76
2023-04-02T18:04:55.589Z,76.2
2023-04-02T18:13:18.812Z,77.4
2023-04-02T18:15:24.626Z,77.8
2023-04-02T18:17:33.467Z,78.6
2023-04-02T18:19:39.265Z,78.8
2023-04-02T18:22:49.534Z,79.1
2023-04-02T18:31:15.845Z,79.7
2023-04-02T18:33:21.578Z,79.9
2023-04-02T18:35:27.421Z,80.3
2023-04-02T18:37:33.150Z,80.6
2023-04-02T18:39:38.949Z,81
2023-04-02T18:52:16.768Z,83.6
2023-04-02T18:54:22.570Z,83.8
2023-04-02T18:56:28.385Z,84.1
2023-04-02T18:58:34.152Z,84.4
2023-04-02T19:00:43.036Z,85
2023-04-02T19:02:48.874Z,85.3
2023-04-02T19:11:11.952Z,86.1
2023-04-02T19:13:17.698Z,86.3
2023-04-02T19:15:26.575Z,86.7
2023-04-02T19:22:09.681Z,86.9
2023-04-02T19:26:21.216Z,87.3
2023-04-02T19:28:30.097Z,87.7
2023-04-02T19:30:35.856Z,87.9
2023-04-02T19:32:41.656Z,88.3
2023-04-02T19:34:47.382Z,88.4
2023-04-02T19:38:58.913Z,88.3
2023-04-02T19:41:04.680Z,88.3
2023-04-02T19:43:14.074Z,88.7
2023-04-02T19:45:19.847Z,88.9
2023-04-02T19:49:31.345Z,89.1
2023-04-02T19:51:37.110Z,89.2
2023-04-02T19:53:42.896Z,89.1
2023-04-02T19:55:48.633Z,89
2023-04-02T19:58:08.443Z,88.7
2023-04-02T20:00:03.260Z,88.8
2023-04-02T20:12:40.841Z,88.5
2023-04-02T20:17:56.785Z,88.2
2023-04-02T20:28:28.525Z,88.7
2023-04-02T20:30:34.536Z,88.8
2023-04-02T20:34:45.952Z,88.9
2023-04-02T20:36:51.643Z,89.1
2023-04-02T20:38:57.409Z,89.2
2023-04-02T20:41:06.228Z,89.3
2023-04-02T21:10:32.599Z,90.1
2023-04-02T21:12:38.339Z,90.2
2023-04-02T21:14:44.036Z,90.2
2023-04-02T21:19:59.884Z,90.4
2023-04-02T21:22:05.638Z,90.4
2023-04-02T21:26:20.123Z,90.5
2023-04-02T21:28:25.852Z,90.6
2023-04-02T21:30:31.547Z,90.6
2023-04-02T21:32:37.297Z,90.6
2023-04-02T21:34:42.980Z,90.6
2023-04-02T21:36:48.708Z,90.6
2023-04-02T21:38:57.496Z,90.6
2023-04-02T21:47:20.326Z,90.7
2023-04-02T21:51:31.731Z,90.7
2023-04-02T21:57:51.846Z,90.8
2023-04-02T21:59:57.595Z,90.8
2023-04-02T22:02:03.255Z,90.8
2023-04-02T22:04:08.970Z,90.8
2023-04-02T22:06:14.656Z,90.8
2023-04-02T22:13:39.407Z,91
2023-04-02T22:15:44.830Z,91
2023-04-02T22:17:50.527Z,91
2023-04-02T22:19:56.223Z,91
2023-04-02T22:22:05.003Z,91.1
2023-04-02T22:34:39.054Z,91.2
2023-04-02T22:36:47.825Z,91.3
2023-04-02T22:38:53.521Z,91.4
2023-04-02T22:40:59.177Z,91.4
2023-04-02T22:45:10.532Z,91.4
2023-04-02T22:55:41.945Z,91.6
2023-04-02T22:57:47.609Z,91.6
2023-04-02T22:59:53.281Z,91.7
2023-04-02T23:01:58.970Z,91.7
2023-04-02T23:04:04.617Z,91.8
2023-04-02T23:06:13.345Z,91.9
2023-04-02T23:10:24.671Z,92
2023-04-02T23:12:56.233Z,91.7
2023-04-02T23:15:01.909Z,91.6
2023-04-02T23:17:07.550Z,91.6
2023-04-02T23:19:16.311Z,91.6
2023-04-02T23:21:21.971Z,91.7
2023-04-02T23:23:27.612Z,92
2023-04-02T23:25:33.278Z,92.2
2023-04-02T23:27:38.929Z,92.2
2023-04-02T23:29:44.584Z,92.3
2023-04-02T23:31:50.272Z,92.2
2023-04-02T23:33:58.971Z,92.3
2023-04-02T23:36:04.663Z,92.3
2023-04-02T23:38:10.275Z,92.3
2023-04-02T23:40:15.947Z,92.3
2023-04-02T23:42:21.584Z,92.3
2023-04-02T23:46:34.532Z,92.3
2023-04-02T23:48:43.189Z,92.2
2023-04-02T23:50:48.843Z,92.3
2023-04-02T23:52:54.483Z,92.3
2023-04-02T23:55:00.147Z,92.3
2023-04-02T23:57:05.851Z,92.3
